Tarboro, North Carolina
Current Conditions -  °F | °C
As of 1:55 PM on Thursday 23 Oct 2014 (Local Time) from KETC Reporting Station
Clear Clear  
Wind Chill: 67°   Ceiling: Unl
Heat Index: 67°   Visibility: 10mi
Dew Point: 46°   Wind: 13mph
Humidity: 45%   Direction: 310°NW
Pressure: 29.92"   Gusts: 20mph
Location:  35.91°N, 77.54°W
Report Text: KETC 231755Z AUTO 31011G17KT 10SM CLR 20/08 A2992 RMK AO2 T01970075 10351 20038
Loading
Personal Weather Stations






























Interactive Weather Map
Tropical Storm Tracking
New forecast layout! Learn more

10-Day Weather Forecast

Advertisements
Track Severe Weather on mobile